sensor_id;sensor_type;location;lat;lon;timestamp;P1;durP1;ratioP1;P2;durP2;ratioP2
35128;SDS011;21301;43.626;10.580;2023-08-06T00:01:21;7.22;;;1.77;;
35128;SDS011;21301;43.626;10.580;2023-08-06T00:03:48;5.47;;;2.17;;
35128;SDS011;21301;43.626;10.580;2023-08-06T00:06:22;3.50;;;1.27;;
35128;SDS011;21301;43.626;10.580;2023-08-06T00:08:49;6.40;;;1.40;;
35128;SDS011;21301;43.626;10.580;2023-08-06T00:11:16;3.58;;;1.50;;
35128;SDS011;21301;43.626;10.580;2023-08-06T00:13:43;7.40;;;1.80;;
35128;SDS011;21301;43.626;10.580;2023-08-06T00:16:09;3.88;;;1.65;;
35128;SDS011;21301;43.626;10.580;2023-08-06T00:18:40;5.03;;;1.90;;
35128;SDS011;21301;43.626;10.580;2023-08-06T00:21:08;3.30;;;1.20;;
35128;SDS011;21301;43.626;10.580;2023-08-06T00:23:35;3.80;;;1.65;;
35128;SDS011;21301;43.626;10.580;2023-08-06T00:26:03;6.57;;;1.65;;
35128;SDS011;21301;43.626;10.580;2023-08-06T00:28:31;4.82;;;1.40;;
35128;SDS011;21301;43.626;10.580;2023-08-06T00:31:17;8.35;;;2.60;;
35128;SDS011;21301;43.626;10.580;2023-08-06T00:33:43;3.13;;;1.40;;
35128;SDS011;21301;43.626;10.580;2023-08-06T00:36:09;3.67;;;1.38;;
35128;SDS011;21301;43.626;10.580;2023-08-06T00:38:39;3.90;;;1.67;;
35128;SDS011;21301;43.626;10.580;2023-08-06T00:41:06;6.53;;;2.05;;
35128;SDS011;21301;43.626;10.580;2023-08-06T00:43:34;4.60;;;1.60;;
35128;SDS011;21301;43.626;10.580;2023-08-06T00:46:04;4.00;;;1.50;;
35128;SDS011;21301;43.626;10.580;2023-08-06T00:48:31;7.95;;;1.60;;
35128;SDS011;21301;43.626;10.580;2023-08-06T00:50:59;4.72;;;1.40;;
35128;SDS011;21301;43.626;10.580;2023-08-06T00:53:28;4.57;;;1.77;;
35128;SDS011;21301;43.626;10.580;2023-08-06T00:55:54;5.22;;;1.77;;
35128;SDS011;21301;43.626;10.580;2023-08-06T00:58:20;4.88;;;1.67;;
35128;SDS011;21301;43.626;10.580;2023-08-06T01:00:46;8.65;;;1.70;;
35128;SDS011;21301;43.626;10.580;2023-08-06T01:05:48;3.95;;;1.27;;
35128;SDS011;21301;43.626;10.580;2023-08-06T01:16:18;4.20;;;1.33;;
35128;SDS011;21301;43.626;10.580;2023-08-06T01:18:48;3.13;;;1.15;;
35128;SDS011;21301;43.626;10.580;2023-08-06T01:21:28;3.45;;;1.10;;
35128;SDS011;21301;43.626;10.580;2023-08-06T01:26:46;5.13;;;1.58;;
35128;SDS011;21301;43.626;10.580;2023-08-06T01:35:01;5.45;;;1.70;;
35128;SDS011;21301;43.626;10.580;2023-08-06T01:37:31;3.78;;;1.55;;
35128;SDS011;21301;43.626;10.580;2023-08-06T01:40:12;4.03;;;1.48;;
35128;SDS011;21301;43.626;10.580;2023-08-06T01:42:44;4.85;;;1.95;;
35128;SDS011;21301;43.626;10.580;2023-08-06T01:45:12;6.70;;;1.13;;
35128;SDS011;21301;43.626;10.580;2023-08-06T01:47:46;3.63;;;1.40;;
35128;SDS011;21301;43.626;10.580;2023-08-06T02:01:34;4.57;;;1.40;;
35128;SDS011;21301;43.626;10.580;2023-08-06T02:04:16;2.33;;;0.82;;
35128;SDS011;21301;43.626;10.580;2023-08-06T02:09:46;2.55;;;0.98;;
35128;SDS011;21301;43.626;10.580;2023-08-06T02:12:18;4.22;;;1.20;;
35128;SDS011;21301;43.626;10.580;2023-08-06T02:14:45;1.80;;;0.80;;
35128;SDS011;21301;43.626;10.580;2023-08-06T02:17:17;2.42;;;0.98;;
35128;SDS011;21301;43.626;10.580;2023-08-06T02:22:11;3.88;;;1.50;;
35128;SDS011;21301;43.626;10.580;2023-08-06T02:24:39;2.70;;;1.10;;
35128;SDS011;21301;43.626;10.580;2023-08-06T02:30:53;6.88;;;1.20;;
35128;SDS011;21301;43.626;10.580;2023-08-06T02:33:32;3.28;;;1.17;;
35128;SDS011;21301;43.626;10.580;2023-08-06T02:36:25;3.95;;;1.80;;
35128;SDS011;21301;43.626;10.580;2023-08-06T02:39:04;2.45;;;1.10;;
35128;SDS011;21301;43.626;10.580;2023-08-06T02:41:43;2.67;;;0.82;;
35128;SDS011;21301;43.626;10.580;2023-08-06T02:44:16;3.35;;;1.27;;
35128;SDS011;21301;43.626;10.580;2023-08-06T02:46:51;4.03;;;0.95;;
35128;SDS011;21301;43.626;10.580;2023-08-06T02:49:25;3.58;;;1.30;;
35128;SDS011;21301;43.626;10.580;2023-08-06T02:54:29;3.70;;;1.17;;
35128;SDS011;21301;43.626;10.580;2023-08-06T02:56:55;3.55;;;0.90;;
35128;SDS011;21301;43.626;10.580;2023-08-06T02:59:29;3.55;;;0.90;;
35128;SDS011;21301;43.626;10.580;2023-08-06T03:02:19;2.50;;;0.98;;
35128;SDS011;21301;43.626;10.580;2023-08-06T03:04:56;2.75;;;0.85;;
35128;SDS011;21301;43.626;10.580;2023-08-06T03:07:30;4.82;;;1.05;;
35128;SDS011;21301;43.626;10.580;2023-08-06T03:10:14;3.75;;;1.40;;
35128;SDS011;21301;43.626;10.580;2023-08-06T03:12:43;2.67;;;0.90;;
35128;SDS011;21301;43.626;10.580;2023-08-06T03:17:49;4.00;;;1.13;;
35128;SDS011;21301;43.626;10.580;2023-08-06T03:20:21;3.78;;;0.90;;
35128;SDS011;21301;43.626;10.580;2023-08-06T03:22:48;6.65;;;1.25;;
35128;SDS011;21301;43.626;10.580;2023-08-06T03:25:26;8.75;;;1.90;;
35128;SDS011;21301;43.626;10.580;2023-08-06T03:27:53;6.90;;;2.40;;
35128;SDS011;21301;43.626;10.580;2023-08-06T03:35:30;5.65;;;1.75;;
35128;SDS011;21301;43.626;10.580;2023-08-06T03:38:01;5.63;;;1.88;;
35128;SDS011;21301;43.626;10.580;2023-08-06T03:40:29;4.40;;;1.10;;
35128;SDS011;21301;43.626;10.580;2023-08-06T03:43:05;2.97;;;1.05;;
35128;SDS011;21301;43.626;10.580;2023-08-06T03:45:33;3.88;;;1.20;;
35128;SDS011;21301;43.626;10.580;2023-08-06T03:48:00;5.32;;;1.88;;
35128;SDS011;21301;43.626;10.580;2023-08-06T03:53:18;5.53;;;1.88;;
35128;SDS011;21301;43.626;10.580;2023-08-06T03:58:26;4.03;;;1.30;;
35128;SDS011;21301;43.626;10.580;2023-08-06T04:01:01;3.53;;;1.55;;
35128;SDS011;21301;43.626;10.580;2023-08-06T04:03:47;3.17;;;1.33;;
35128;SDS011;21301;43.626;10.580;2023-08-06T04:06:21;3.28;;;1.27;;
35128;SDS011;21301;43.626;10.580;2023-08-06T04:09:00;7.90;;;1.50;;
35128;SDS011;21301;43.626;10.580;2023-08-06T04:17:25;4.18;;;1.02;;
35128;SDS011;21301;43.626;10.580;2023-08-06T04:20:01;2.90;;;1.10;;
35128;SDS011;21301;43.626;10.580;2023-08-06T04:22:44;4.88;;;1.30;;
35128;SDS011;21301;43.626;10.580;2023-08-06T04:25:30;3.65;;;1.25;;
35128;SDS011;21301;43.626;10.580;2023-08-06T04:35:33;3.50;;;1.27;;
35128;SDS011;21301;43.626;10.580;2023-08-06T04:38:00;4.32;;;1.70;;
35128;SDS011;21301;43.626;10.580;2023-08-06T04:40:37;5.85;;;2.03;;
35128;SDS011;21301;43.626;10.580;2023-08-06T04:46:06;4.00;;;1.80;;
35128;SDS011;21301;43.626;10.580;2023-08-06T04:52:26;4.68;;;1.80;;
35128;SDS011;21301;43.626;10.580;2023-08-06T04:58:50;4.03;;;1.65;;
35128;SDS011;21301;43.626;10.580;2023-08-06T05:01:24;5.43;;;1.30;;
35128;SDS011;21301;43.626;10.580;2023-08-06T05:11:36;3.55;;;1.30;;
35128;SDS011;21301;43.626;10.580;2023-08-06T05:14:03;3.08;;;1.15;;
35128;SDS011;21301;43.626;10.580;2023-08-06T05:16:29;7.30;;;1.40;;
35128;SDS011;21301;43.626;10.580;2023-08-06T05:18:58;2.90;;;1.20;;
35128;SDS011;21301;43.626;10.580;2023-08-06T05:21:33;5.95;;;2.22;;
35128;SDS011;21301;43.626;10.580;2023-08-06T05:24:04;2.70;;;0.93;;
35128;SDS011;21301;43.626;10.580;2023-08-06T05:29:18;6.38;;;2.22;;
35128;SDS011;21301;43.626;10.580;2023-08-06T05:31:44;4.70;;;2.00;;
35128;SDS011;21301;43.626;10.580;2023-08-06T05:34:11;5.30;;;2.45;;
35128;SDS011;21301;43.626;10.580;2023-08-06T05:36:38;6.60;;;2.33;;
35128;SDS011;21301;43.626;10.580;2023-08-06T05:39:04;8.30;;;2.35;;
35128;SDS011;21301;43.626;10.580;2023-08-06T05:41:31;7.53;;;3.20;;
35128;SDS011;21301;43.626;10.580;2023-08-06T05:44:05;7.75;;;2.90;;
35128;SDS011;21301;43.626;10.580;2023-08-06T05:46:40;7.20;;;2.25;;
35128;SDS011;21301;43.626;10.580;2023-08-06T05:49:07;6.00;;;2.53;;
35128;SDS011;21301;43.626;10.580;2023-08-06T05:51:35;3.50;;;1.23;;
35128;SDS011;21301;43.626;10.580;2023-08-06T05:54:05;12.98;;;3.72;;
35128;SDS011;21301;43.626;10.580;2023-08-06T06:00:21;6.80;;;2.28;;
35128;SDS011;21301;43.626;10.580;2023-08-06T06:02:52;6.17;;;2.77;;
35128;SDS011;21301;43.626;10.580;2023-08-06T06:05:22;8.13;;;3.35;;
35128;SDS011;21301;43.626;10.580;2023-08-06T06:07:49;4.25;;;1.83;;
35128;SDS011;21301;43.626;10.580;2023-08-06T06:10:23;5.13;;;2.35;;
35128;SDS011;21301;43.626;10.580;2023-08-06T06:12:50;12.80;;;5.40;;
35128;SDS011;21301;43.626;10.580;2023-08-06T06:15:19;4.35;;;2.05;;
35128;SDS011;21301;43.626;10.580;2023-08-06T06:17:48;6.65;;;1.92;;
35128;SDS011;21301;43.626;10.580;2023-08-06T06:20:16;4.90;;;1.60;;
35128;SDS011;21301;43.626;10.580;2023-08-06T06:22:43;5.70;;;2.38;;
35128;SDS011;21301;43.626;10.580;2023-08-06T06:25:11;5.53;;;1.73;;
35128;SDS011;21301;43.626;10.580;2023-08-06T06:27:44;5.95;;;1.58;;
35128;SDS011;21301;43.626;10.580;2023-08-06T06:30:11;5.03;;;2.10;;
35128;SDS011;21301;43.626;10.580;2023-08-06T06:32:42;5.45;;;2.40;;
35128;SDS011;21301;43.626;10.580;2023-08-06T06:35:09;4.53;;;1.38;;
35128;SDS011;21301;43.626;10.580;2023-08-06T06:37:46;4.60;;;1.48;;
35128;SDS011;21301;43.626;10.580;2023-08-06T06:40:15;4.80;;;1.52;;
35128;SDS011;21301;43.626;10.580;2023-08-06T06:42:43;4.18;;;1.52;;
35128;SDS011;21301;43.626;10.580;2023-08-06T06:45:11;6.80;;;2.38;;
35128;SDS011;21301;43.626;10.580;2023-08-06T06:47:40;2.10;;;0.85;;
35128;SDS011;21301;43.626;10.580;2023-08-06T06:52:49;4.07;;;1.30;;
35128;SDS011;21301;43.626;10.580;2023-08-06T06:55:24;2.88;;;1.17;;
35128;SDS011;21301;43.626;10.580;2023-08-06T06:57:52;5.47;;;1.52;;
35128;SDS011;21301;43.626;10.580;2023-08-06T07:00:22;5.78;;;1.58;;
35128;SDS011;21301;43.626;10.580;2023-08-06T07:02:48;3.70;;;1.30;;
35128;SDS011;21301;43.626;10.580;2023-08-06T07:05:20;7.88;;;1.98;;
35128;SDS011;21301;43.626;10.580;2023-08-06T07:07:49;6.72;;;1.88;;
35128;SDS011;21301;43.626;10.580;2023-08-06T07:10:16;9.75;;;1.70;;
35128;SDS011;21301;43.626;10.580;2023-08-06T07:12:47;4.43;;;1.10;;
35128;SDS011;21301;43.626;10.580;2023-08-06T07:15:15;5.82;;;1.70;;
35128;SDS011;21301;43.626;10.580;2023-08-06T07:17:43;4.78;;;1.33;;
35128;SDS011;21301;43.626;10.580;2023-08-06T07:22:48;6.63;;;1.75;;
35128;SDS011;21301;43.626;10.580;2023-08-06T07:25:22;7.22;;;1.83;;
35128;SDS011;21301;43.626;10.580;2023-08-06T07:27:51;4.18;;;1.35;;
35128;SDS011;21301;43.626;10.580;2023-08-06T07:30:19;6.60;;;1.63;;
35128;SDS011;21301;43.626;10.580;2023-08-06T07:32:55;7.50;;;1.70;;
35128;SDS011;21301;43.626;10.580;2023-08-06T07:35:32;6.60;;;2.20;;
35128;SDS011;21301;43.626;10.580;2023-08-06T07:38:04;13.07;;;2.63;;
35128;SDS011;21301;43.626;10.580;2023-08-06T07:40:38;8.90;;;1.60;;
35128;SDS011;21301;43.626;10.580;2023-08-06T07:43:16;7.35;;;1.83;;
35128;SDS011;21301;43.626;10.580;2023-08-06T07:45:57;6.90;;;1.80;;
35128;SDS011;21301;43.626;10.580;2023-08-06T07:48:32;5.97;;;2.20;;
35128;SDS011;21301;43.626;10.580;2023-08-06T07:51:00;6.28;;;1.67;;
35128;SDS011;21301;43.626;10.580;2023-08-06T07:53:26;4.82;;;1.38;;
35128;SDS011;21301;43.626;10.580;2023-08-06T07:56:21;5.95;;;1.58;;
35128;SDS011;21301;43.626;10.580;2023-08-06T07:58:57;9.05;;;1.85;;
35128;SDS011;21301;43.626;10.580;2023-08-06T08:01:57;8.00;;;2.17;;
35128;SDS011;21301;43.626;10.580;2023-08-06T08:05:16;9.48;;;2.30;;
35128;SDS011;21301;43.626;10.580;2023-08-06T08:07:52;10.20;;;2.70;;
35128;SDS011;21301;43.626;10.580;2023-08-06T08:15:47;10.43;;;2.13;;
35128;SDS011;21301;43.626;10.580;2023-08-06T08:18:13;10.90;;;2.63;;
35128;SDS011;21301;43.626;10.580;2023-08-06T08:24:34;8.65;;;2.45;;
35128;SDS011;21301;43.626;10.580;2023-08-06T08:27:02;10.65;;;2.40;;
35128;SDS011;21301;43.626;10.580;2023-08-06T08:34:59;23.52;;;2.60;;
35128;SDS011;21301;43.626;10.580;2023-08-06T08:37:26;12.40;;;2.72;;
35128;SDS011;21301;43.626;10.580;2023-08-06T08:39:55;14.85;;;3.33;;
35128;SDS011;21301;43.626;10.580;2023-08-06T08:45:06;15.77;;;3.63;;
35128;SDS011;21301;43.626;10.580;2023-08-06T08:52:54;14.13;;;3.33;;
35128;SDS011;21301;43.626;10.580;2023-08-06T08:55:27;11.55;;;2.60;;
35128;SDS011;21301;43.626;10.580;2023-08-06T08:57:54;10.85;;;2.63;;
35128;SDS011;21301;43.626;10.580;2023-08-06T09:00:20;13.95;;;3.35;;
35128;SDS011;21301;43.626;10.580;2023-08-06T09:02:50;17.77;;;3.50;;
35128;SDS011;21301;43.626;10.580;2023-08-06T09:05:32;13.73;;;3.80;;
35128;SDS011;21301;43.626;10.580;2023-08-06T09:08:03;14.93;;;3.03;;
35128;SDS011;21301;43.626;10.580;2023-08-06T09:10:33;17.88;;;4.40;;
35128;SDS011;21301;43.626;10.580;2023-08-06T09:13:38;15.65;;;4.65;;
35128;SDS011;21301;43.626;10.580;2023-08-06T09:16:05;8.82;;;2.60;;
35128;SDS011;21301;43.626;10.580;2023-08-06T09:18:32;14.73;;;3.17;;
35128;SDS011;21301;43.626;10.580;2023-08-06T09:21:13;10.60;;;2.20;;
35128;SDS011;21301;43.626;10.580;2023-08-06T09:28:46;13.98;;;3.53;;
35128;SDS011;21301;43.626;10.580;2023-08-06T09:36:39;15.48;;;3.60;;
35128;SDS011;21301;43.626;10.580;2023-08-06T09:39:18;12.80;;;3.45;;
35128;SDS011;21301;43.626;10.580;2023-08-06T09:51:17;10.85;;;3.00;;
35128;SDS011;21301;43.626;10.580;2023-08-06T09:53:44;25.60;;;6.00;;
35128;SDS011;21301;43.626;10.580;2023-08-06T09:56:14;11.80;;;3.13;;
35128;SDS011;21301;43.626;10.580;2023-08-06T09:58:43;15.57;;;3.45;;
35128;SDS011;21301;43.626;10.580;2023-08-06T10:01:12;12.65;;;3.40;;
35128;SDS011;21301;43.626;10.580;2023-08-06T10:03:39;11.70;;;3.13;;
35128;SDS011;21301;43.626;10.580;2023-08-06T10:06:09;9.80;;;3.53;;
35128;SDS011;21301;43.626;10.580;2023-08-06T10:08:36;11.85;;;2.92;;
35128;SDS011;21301;43.626;10.580;2023-08-06T10:11:02;9.18;;;3.35;;
35128;SDS011;21301;43.626;10.580;2023-08-06T10:16:17;10.95;;;2.28;;
35128;SDS011;21301;43.626;10.580;2023-08-06T10:18:53;10.27;;;3.00;;
35128;SDS011;21301;43.626;10.580;2023-08-06T10:21:23;13.77;;;3.25;;
35128;SDS011;21301;43.626;10.580;2023-08-06T10:26:37;10.18;;;3.22;;
35128;SDS011;21301;43.626;10.580;2023-08-06T10:32:02;9.02;;;3.00;;
35128;SDS011;21301;43.626;10.580;2023-08-06T10:34:54;9.68;;;2.78;;
35128;SDS011;21301;43.626;10.580;2023-08-06T10:37:20;10.18;;;2.92;;
35128;SDS011;21301;43.626;10.580;2023-08-06T10:39:49;10.98;;;3.50;;
35128;SDS011;21301;43.626;10.580;2023-08-06T10:45:16;15.50;;;2.95;;
35128;SDS011;21301;43.626;10.580;2023-08-06T10:47:45;11.07;;;3.00;;
35128;SDS011;21301;43.626;10.580;2023-08-06T10:50:30;11.98;;;3.28;;
35128;SDS011;21301;43.626;10.580;2023-08-06T10:52:57;11.75;;;3.35;;
35128;SDS011;21301;43.626;10.580;2023-08-06T10:55:30;14.50;;;3.25;;
35128;SDS011;21301;43.626;10.580;2023-08-06T10:57:56;17.58;;;3.55;;
35128;SDS011;21301;43.626;10.580;2023-08-06T11:00:26;13.70;;;3.25;;
35128;SDS011;21301;43.626;10.580;2023-08-06T11:02:52;16.25;;;4.03;;
35128;SDS011;21301;43.626;10.580;2023-08-06T11:05:48;11.20;;;3.05;;
35128;SDS011;21301;43.626;10.580;2023-08-06T11:08:26;14.50;;;4.43;;
35128;SDS011;21301;43.626;10.580;2023-08-06T11:10:55;13.52;;;3.55;;
35128;SDS011;21301;43.626;10.580;2023-08-06T11:13:32;14.55;;;3.25;;
35128;SDS011;21301;43.626;10.580;2023-08-06T11:16:05;9.38;;;3.03;;
35128;SDS011;21301;43.626;10.580;2023-08-06T11:18:32;10.77;;;3.15;;
35128;SDS011;21301;43.626;10.580;2023-08-06T11:21:00;8.52;;;3.00;;
35128;SDS011;21301;43.626;10.580;2023-08-06T11:23:29;9.93;;;2.95;;
35128;SDS011;21301;43.626;10.580;2023-08-06T11:28:49;10.68;;;2.15;;
35128;SDS011;21301;43.626;10.580;2023-08-06T11:31:24;11.48;;;2.58;;
35128;SDS011;21301;43.626;10.580;2023-08-06T11:33:50;9.10;;;2.95;;
35128;SDS011;21301;43.626;10.580;2023-08-06T11:36:31;15.45;;;3.92;;
35128;SDS011;21301;43.626;10.580;2023-08-06T11:39:03;13.15;;;2.63;;
35128;SDS011;21301;43.626;10.580;2023-08-06T11:42:13;8.57;;;2.67;;
35128;SDS011;21301;43.626;10.580;2023-08-06T11:44:41;10.20;;;2.67;;
35128;SDS011;21301;43.626;10.580;2023-08-06T11:47:15;7.20;;;2.60;;
35128;SDS011;21301;43.626;10.580;2023-08-06T11:49:50;7.40;;;2.33;;
35128;SDS011;21301;43.626;10.580;2023-08-06T11:52:20;7.95;;;2.67;;
35128;SDS011;21301;43.626;10.580;2023-08-06T11:55:01;10.02;;;2.20;;
35128;SDS011;21301;43.626;10.580;2023-08-06T11:57:30;6.82;;;2.60;;
35128;SDS011;21301;43.626;10.580;2023-08-06T12:00:05;9.05;;;3.78;;
35128;SDS011;21301;43.626;10.580;2023-08-06T12:02:45;8.93;;;2.78;;
35128;SDS011;21301;43.626;10.580;2023-08-06T12:05:12;8.70;;;2.47;;
35128;SDS011;21301;43.626;10.580;2023-08-06T12:07:41;5.93;;;1.90;;
35128;SDS011;21301;43.626;10.580;2023-08-06T12:10:29;13.75;;;3.85;;
35128;SDS011;21301;43.626;10.580;2023-08-06T12:12:59;13.15;;;2.67;;
35128;SDS011;21301;43.626;10.580;2023-08-06T12:18:27;18.83;;;4.13;;
35128;SDS011;21301;43.626;10.580;2023-08-06T12:20:54;9.80;;;3.40;;
35128;SDS011;21301;43.626;10.580;2023-08-06T12:23:25;13.57;;;3.95;;
35128;SDS011;21301;43.626;10.580;2023-08-06T12:25:54;8.70;;;2.97;;
35128;SDS011;21301;43.626;10.580;2023-08-06T12:28:21;14.13;;;3.42;;
35128;SDS011;21301;43.626;10.580;2023-08-06T12:30:47;16.73;;;3.47;;
35128;SDS011;21301;43.626;10.580;2023-08-06T12:33:13;14.57;;;3.75;;
35128;SDS011;21301;43.626;10.580;2023-08-06T12:35:42;15.68;;;4.32;;
35128;SDS011;21301;43.626;10.580;2023-08-06T12:38:08;14.07;;;3.70;;
35128;SDS011;21301;43.626;10.580;2023-08-06T12:40:37;10.70;;;3.90;;
35128;SDS011;21301;43.626;10.580;2023-08-06T12:43:03;9.88;;;2.72;;
35128;SDS011;21301;43.626;10.580;2023-08-06T12:45:30;11.40;;;3.83;;
35128;SDS011;21301;43.626;10.580;2023-08-06T12:47:58;12.20;;;4.35;;
35128;SDS011;21301;43.626;10.580;2023-08-06T12:53:20;23.65;;;4.50;;
35128;SDS011;21301;43.626;10.580;2023-08-06T12:58:37;15.25;;;4.05;;
35128;SDS011;21301;43.626;10.580;2023-08-06T13:01:13;12.02;;;3.17;;
35128;SDS011;21301;43.626;10.580;2023-08-06T13:03:47;9.32;;;2.90;;
35128;SDS011;21301;43.626;10.580;2023-08-06T13:08:48;12.82;;;3.30;;
35128;SDS011;21301;43.626;10.580;2023-08-06T13:11:16;14.60;;;4.97;;
35128;SDS011;21301;43.626;10.580;2023-08-06T13:13:45;12.35;;;2.78;;
35128;SDS011;21301;43.626;10.580;2023-08-06T13:18:43;11.15;;;2.45;;
35128;SDS011;21301;43.626;10.580;2023-08-06T13:21:11;11.68;;;3.42;;
35128;SDS011;21301;43.626;10.580;2023-08-06T13:28:39;10.65;;;2.30;;
35128;SDS011;21301;43.626;10.580;2023-08-06T13:31:05;12.88;;;3.88;;
35128;SDS011;21301;43.626;10.580;2023-08-06T13:33:32;10.80;;;2.97;;
35128;SDS011;21301;43.626;10.580;2023-08-06T13:35:58;14.75;;;3.30;;
35128;SDS011;21301;43.626;10.580;2023-08-06T13:38:27;15.75;;;3.25;;
35128;SDS011;21301;43.626;10.580;2023-08-06T13:40:54;14.95;;;3.53;;
35128;SDS011;21301;43.626;10.580;2023-08-06T13:43:20;13.32;;;4.18;;
35128;SDS011;21301;43.626;10.580;2023-08-06T13:45:46;10.80;;;2.83;;
35128;SDS011;21301;43.626;10.580;2023-08-06T13:48:14;15.38;;;3.28;;
35128;SDS011;21301;43.626;10.580;2023-08-06T13:50:47;15.95;;;3.05;;
35128;SDS011;21301;43.626;10.580;2023-08-06T13:53:15;16.65;;;3.20;;
35128;SDS011;21301;43.626;10.580;2023-08-06T13:55:42;17.27;;;3.78;;
35128;SDS011;21301;43.626;10.580;2023-08-06T13:58:09;11.65;;;3.33;;
35128;SDS011;21301;43.626;10.580;2023-08-06T14:00:36;10.95;;;2.97;;
35128;SDS011;21301;43.626;10.580;2023-08-06T14:03:03;12.27;;;2.35;;
35128;SDS011;21301;43.626;10.580;2023-08-06T14:05:37;13.45;;;2.97;;
35128;SDS011;21301;43.626;10.580;2023-08-06T14:08:03;12.25;;;2.72;;
35128;SDS011;21301;43.626;10.580;2023-08-06T14:10:30;11.73;;;3.40;;
35128;SDS011;21301;43.626;10.580;2023-08-06T14:12:58;17.85;;;3.55;;
35128;SDS011;21301;43.626;10.580;2023-08-06T14:15:24;9.27;;;2.85;;
35128;SDS011;21301;43.626;10.580;2023-08-06T14:17:50;16.20;;;4.05;;
35128;SDS011;21301;43.626;10.580;2023-08-06T14:22:47;11.40;;;3.30;;
35128;SDS011;21301;43.626;10.580;2023-08-06T14:25:14;14.23;;;3.90;;
35128;SDS011;21301;43.626;10.580;2023-08-06T14:27:41;19.48;;;3.97;;
35128;SDS011;21301;43.626;10.580;2023-08-06T14:30:11;18.90;;;4.05;;
35128;SDS011;21301;43.626;10.580;2023-08-06T14:35:08;18.70;;;4.20;;
35128;SDS011;21301;43.626;10.580;2023-08-06T14:37:37;17.83;;;3.72;;
35128;SDS011;21301;43.626;10.580;2023-08-06T14:40:06;14.38;;;3.80;;
35128;SDS011;21301;43.626;10.580;2023-08-06T14:42:33;13.80;;;3.60;;
35128;SDS011;21301;43.626;10.580;2023-08-06T14:45:01;15.73;;;4.15;;
35128;SDS011;21301;43.626;10.580;2023-08-06T14:47:28;10.15;;;3.25;;
35128;SDS011;21301;43.626;10.580;2023-08-06T14:49:55;14.45;;;3.67;;
35128;SDS011;21301;43.626;10.580;2023-08-06T14:52:21;14.63;;;3.50;;
35128;SDS011;21301;43.626;10.580;2023-08-06T14:54:47;13.65;;;3.33;;
35128;SDS011;21301;43.626;10.580;2023-08-06T14:57:19;16.52;;;4.10;;
35128;SDS011;21301;43.626;10.580;2023-08-06T14:59:48;17.60;;;4.30;;
35128;SDS011;21301;43.626;10.580;2023-08-06T15:02:15;12.60;;;3.15;;
35128;SDS011;21301;43.626;10.580;2023-08-06T15:04:47;11.63;;;3.00;;
35128;SDS011;21301;43.626;10.580;2023-08-06T15:07:14;17.80;;;3.38;;
35128;SDS011;21301;43.626;10.580;2023-08-06T15:09:41;14.30;;;3.40;;
35128;SDS011;21301;43.626;10.580;2023-08-06T15:12:08;17.35;;;3.80;;
35128;SDS011;21301;43.626;10.580;2023-08-06T15:14:35;19.27;;;3.17;;
35128;SDS011;21301;43.626;10.580;2023-08-06T15:17:03;15.48;;;5.10;;
35128;SDS011;21301;43.626;10.580;2023-08-06T15:19:32;15.65;;;4.53;;
35128;SDS011;21301;43.626;10.580;2023-08-06T15:22:01;16.88;;;4.43;;
35128;SDS011;21301;43.626;10.580;2023-08-06T15:27:08;16.15;;;5.40;;
35128;SDS011;21301;43.626;10.580;2023-08-06T15:29:35;14.23;;;3.35;;
35128;SDS011;21301;43.626;10.580;2023-08-06T15:32:02;18.90;;;4.15;;
35128;SDS011;21301;43.626;10.580;2023-08-06T15:34:31;16.00;;;4.40;;
35128;SDS011;21301;43.626;10.580;2023-08-06T15:37:06;21.95;;;4.63;;
35128;SDS011;21301;43.626;10.580;2023-08-06T15:42:12;25.02;;;4.72;;
35128;SDS011;21301;43.626;10.580;2023-08-06T15:44:39;20.30;;;5.15;;
35128;SDS011;21301;43.626;10.580;2023-08-06T15:47:09;17.17;;;5.43;;
35128;SDS011;21301;43.626;10.580;2023-08-06T15:49:37;13.23;;;3.92;;
35128;SDS011;21301;43.626;10.580;2023-08-06T15:52:08;14.65;;;3.58;;
35128;SDS011;21301;43.626;10.580;2023-08-06T15:54:37;18.15;;;5.20;;
35128;SDS011;21301;43.626;10.580;2023-08-06T15:57:06;19.90;;;4.70;;
35128;SDS011;21301;43.626;10.580;2023-08-06T16:03:27;18.13;;;4.50;;
35128;SDS011;21301;43.626;10.580;2023-08-06T16:06:04;20.17;;;4.82;;
35128;SDS011;21301;43.626;10.580;2023-08-06T16:08:38;15.55;;;4.32;;
35128;SDS011;21301;43.626;10.580;2023-08-06T16:13:32;19.17;;;4.78;;
35128;SDS011;21301;43.626;10.580;2023-08-06T16:16:02;21.02;;;5.55;;
35128;SDS011;21301;43.626;10.580;2023-08-06T16:18:28;19.90;;;4.82;;
35128;SDS011;21301;43.626;10.580;2023-08-06T16:20:59;20.23;;;4.70;;
35128;SDS011;21301;43.626;10.580;2023-08-06T16:23:36;20.15;;;5.15;;
35128;SDS011;21301;43.626;10.580;2023-08-06T16:26:02;23.90;;;5.28;;
35128;SDS011;21301;43.626;10.580;2023-08-06T16:28:29;20.55;;;6.13;;
35128;SDS011;21301;43.626;10.580;2023-08-06T16:30:58;17.92;;;4.93;;
35128;SDS011;21301;43.626;10.580;2023-08-06T16:33:30;23.30;;;5.35;;
35128;SDS011;21301;43.626;10.580;2023-08-06T16:35:55;21.67;;;5.38;;
35128;SDS011;21301;43.626;10.580;2023-08-06T16:38:22;25.80;;;6.50;;
35128;SDS011;21301;43.626;10.580;2023-08-06T16:40:51;20.80;;;5.50;;
35128;SDS011;21301;43.626;10.580;2023-08-06T16:43:24;20.85;;;5.68;;
35128;SDS011;21301;43.626;10.580;2023-08-06T16:45:54;18.67;;;7.28;;
35128;SDS011;21301;43.626;10.580;2023-08-06T16:48:25;21.38;;;5.22;;
35128;SDS011;21301;43.626;10.580;2023-08-06T16:50:58;16.67;;;4.88;;
35128;SDS011;21301;43.626;10.580;2023-08-06T16:53:31;22.70;;;4.47;;
35128;SDS011;21301;43.626;10.580;2023-08-06T16:55:57;23.15;;;5.45;;
35128;SDS011;21301;43.626;10.580;2023-08-06T16:58:26;31.30;;;7.25;;
35128;SDS011;21301;43.626;10.580;2023-08-06T17:00:53;19.88;;;5.97;;
35128;SDS011;21301;43.626;10.580;2023-08-06T17:06:08;20.30;;;4.93;;
35128;SDS011;21301;43.626;10.580;2023-08-06T17:08:40;21.13;;;4.83;;
35128;SDS011;21301;43.626;10.580;2023-08-06T17:11:08;23.48;;;5.25;;
35128;SDS011;21301;43.626;10.580;2023-08-06T17:13:35;19.13;;;5.47;;
35128;SDS011;21301;43.626;10.580;2023-08-06T17:16:04;19.45;;;4.03;;
35128;SDS011;21301;43.626;10.580;2023-08-06T17:18:32;19.45;;;6.13;;
35128;SDS011;21301;43.626;10.580;2023-08-06T17:20:59;25.05;;;6.35;;
35128;SDS011;21301;43.626;10.580;2023-08-06T17:23:26;30.02;;;5.70;;
35128;SDS011;21301;43.626;10.580;2023-08-06T17:25:52;30.48;;;5.15;;
35128;SDS011;21301;43.626;10.580;2023-08-06T17:28:23;24.95;;;4.70;;
35128;SDS011;21301;43.626;10.580;2023-08-06T17:30:59;20.67;;;5.18;;
35128;SDS011;21301;43.626;10.580;2023-08-06T17:33:25;25.85;;;5.20;;
35128;SDS011;21301;43.626;10.580;2023-08-06T17:35:51;21.45;;;5.55;;
35128;SDS011;21301;43.626;10.580;2023-08-06T17:38:17;28.02;;;9.13;;
35128;SDS011;21301;43.626;10.580;2023-08-06T17:40:44;19.67;;;4.40;;
35128;SDS011;21301;43.626;10.580;2023-08-06T17:43:10;25.88;;;6.18;;
35128;SDS011;21301;43.626;10.580;2023-08-06T17:45:37;24.48;;;5.78;;
35128;SDS011;21301;43.626;10.580;2023-08-06T17:48:03;17.17;;;4.43;;
35128;SDS011;21301;43.626;10.580;2023-08-06T17:50:30;25.20;;;5.05;;
35128;SDS011;21301;43.626;10.580;2023-08-06T17:52:56;21.95;;;5.00;;
35128;SDS011;21301;43.626;10.580;2023-08-06T17:55:22;29.08;;;7.47;;
35128;SDS011;21301;43.626;10.580;2023-08-06T17:57:47;22.38;;;5.07;;
35128;SDS011;21301;43.626;10.580;2023-08-06T18:00:13;24.17;;;5.88;;
35128;SDS011;21301;43.626;10.580;2023-08-06T18:02:42;25.52;;;6.65;;